Live aus Altenrhein
LIVE
LSZR 222020Z AUTO 10004KT 1700 BR OVC003 BKN110 M06/M06 Q1024

People´s Info Center:

Öffnungszeiten Mo-Fr, 8-18 Uhr

 

info@peoples.ch

 
Aus Österreich:

T: +43 (0)5572 203 610

 

Aus CH / LI / DE:

T: +41 (0)71 858 51 60

 

Offene Stellen

Möchten Sie ein Teil der People´s Familie werden?

 

 

Wir suchen:

Per sofort oder nach Vereinbarung eine/n Flight Attendant (m/w), eine/n Captain / First Officer (m/w), eine/n Spezialist Airline Vertriebssysteme (m/w) und eine/n IT Systembetreuer (m/w).


Ihr Kontakt für Initiativbewerbungen:

 

Tanja Brühwiler

t.bruehwiler@peoples.ch

+41 71 858 51 20